createdAt,value
2019-03-12T00:01:22.071Z,6.43
2019-03-12T00:03:51.527Z,14.90
2019-03-12T00:06:20.934Z,14.57
2019-03-12T00:08:50.735Z,13.80
2019-03-12T00:11:22.417Z,12.43
2019-03-12T00:13:51.813Z,8.30
2019-03-12T00:16:21.239Z,8.63
2019-03-12T00:18:50.671Z,15.53
2019-03-12T00:21:20.137Z,12.63
2019-03-12T00:23:49.576Z,15.70
2019-03-12T00:26:18.967Z,11.90
2019-03-12T00:28:48.526Z,13.70
2019-03-12T00:31:17.912Z,13.77
2019-03-12T00:33:47.350Z,9.77
2019-03-12T00:36:16.819Z,14.10
2019-03-12T00:38:46.252Z,15.30
2019-03-12T00:41:15.651Z,15.30
2019-03-12T00:43:45.247Z,10.90
2019-03-12T00:46:14.636Z,16.30
2019-03-12T00:48:44.069Z,11.10
2019-03-12T00:51:13.779Z,11.87
2019-03-12T00:53:43.208Z,13.13
2019-03-12T00:56:12.616Z,16.10
2019-03-12T00:58:42.470Z,13.90
2019-03-12T01:01:11.871Z,14.60
2019-03-12T01:03:41.275Z,14.20
2019-03-12T01:06:10.719Z,11.67
2019-03-12T01:08:40.129Z,13.87
2019-03-12T01:11:09.574Z,14.80
2019-03-12T01:13:38.996Z,12.30
2019-03-12T01:16:08.810Z,20.23
2019-03-12T01:18:38.208Z,12.37
2019-03-12T01:21:07.652Z,15.33
2019-03-12T01:23:37.036Z,13.17
2019-03-12T01:26:06.477Z,14.27
2019-03-12T01:28:35.854Z,13.27
2019-03-12T01:31:05.641Z,14.50
2019-03-12T01:33:35.060Z,8.97
2019-03-12T01:36:05.020Z,13.27
2019-03-12T01:38:34.420Z,17.00
2019-03-12T01:41:03.861Z,11.20
2019-03-12T01:43:33.229Z,9.77
2019-03-12T01:46:03.265Z,11.63
2019-03-12T01:48:32.676Z,12.43
2019-03-12T01:51:02.099Z,12.43
2019-03-12T01:53:31.528Z,11.70
2019-03-12T01:56:00.934Z,7.40
2019-03-12T01:58:30.467Z,13.40
2019-03-12T02:00:59.866Z,11.77
2019-03-12T02:03:29.263Z,10.03
2019-03-12T02:06:01.765Z,14.53
2019-03-12T02:08:31.157Z,16.23
2019-03-12T02:11:00.605Z,13.40
2019-03-12T02:13:30.033Z,17.07
2019-03-12T02:15:59.494Z,16.20
2019-03-12T02:18:28.849Z,14.63
2019-03-12T02:20:58.593Z,18.53
2019-03-12T02:23:29.131Z,15.10
2019-03-12T02:25:58.726Z,20.30
2019-03-12T02:28:28.162Z,17.10
2019-03-12T02:31:00.635Z,17.40
2019-03-12T02:33:30.107Z,13.07
2019-03-12T02:35:59.759Z,14.63
2019-03-12T02:38:29.134Z,22.00
2019-03-12T02:40:58.926Z,10.23
2019-03-12T02:43:28.316Z,14.53
2019-03-12T02:45:57.744Z,25.10
2019-03-12T02:48:27.149Z,19.90
2019-03-12T02:50:56.609Z,23.37
2019-03-12T02:53:26.013Z,20.13
2019-03-12T02:56:01.397Z,20.30
2019-03-12T02:58:28.033Z,12.93
2019-03-12T03:00:57.471Z,19.23
2019-03-12T03:03:26.887Z,18.27
2019-03-12T03:06:13.316Z,17.73
2019-03-12T03:08:42.732Z,25.37
2019-03-12T03:11:12.277Z,21.83
2019-03-12T03:13:41.690Z,19.20
2019-03-12T03:16:11.159Z,24.40
2019-03-12T03:18:40.564Z,20.43
2019-03-12T03:21:10.033Z,24.23
2019-03-12T03:23:39.430Z,19.20
2019-03-12T03:26:09.274Z,16.03
2019-03-12T03:28:38.868Z,14.23
2019-03-12T03:31:08.391Z,8.10
2019-03-12T03:33:37.787Z,16.13
2019-03-12T03:36:07.610Z,15.33
2019-03-12T03:38:37.013Z,18.73
2019-03-12T03:41:07.110Z,11.43
2019-03-12T03:43:36.582Z,9.57
2019-03-12T03:46:06.032Z,18.40
2019-03-12T03:48:35.540Z,20.70
2019-03-12T03:51:04.938Z,16.10
2019-03-12T03:53:34.490Z,15.07
2019-03-12T03:56:03.856Z,19.33
2019-03-12T03:58:33.665Z,14.63
2019-03-12T04:01:03.055Z,16.60
2019-03-12T04:03:32.529Z,11.97
2019-03-12T04:06:02.145Z,15.37
2019-03-12T04:08:31.592Z,16.50
2019-03-12T04:11:00.993Z,17.33
2019-03-12T04:13:31.034Z,15.63
2019-03-12T04:16:00.435Z,15.10
2019-03-12T04:18:29.853Z,19.93
2019-03-12T04:20:59.275Z,17.23
2019-03-12T04:23:31.723Z,16.20
2019-03-12T04:26:01.106Z,18.93
2019-03-12T04:28:30.790Z,16.73
2019-03-12T04:31:00.222Z,23.23
2019-03-12T04:34:16.978Z,18.10
2019-03-12T04:36:47.938Z,18.53
2019-03-12T04:39:17.367Z,24.50
2019-03-12T04:41:46.759Z,17.60
2019-03-12T04:44:16.187Z,21.30
2019-03-12T04:46:45.597Z,26.90
2019-03-12T04:49:15.031Z,22.97
2019-03-12T04:51:44.563Z,18.33
2019-03-12T04:54:13.968Z,21.53
2019-03-12T04:56:43.407Z,24.37
2019-03-12T04:59:12.802Z,17.63
2019-03-12T05:01:42.254Z,20.27
2019-03-12T05:04:11.668Z,19.70
2019-03-12T05:06:41.143Z,24.60
2019-03-12T05:09:10.536Z,22.37
2019-03-12T05:11:40.084Z,20.33
2019-03-12T05:14:28.494Z,27.87
2019-03-12T05:17:01.162Z,25.53
2019-03-12T05:19:30.624Z,23.00
2019-03-12T05:22:00.108Z,20.90
2019-03-12T05:24:29.498Z,26.73
2019-03-12T05:26:58.923Z,25.80
2019-03-12T05:29:28.541Z,19.93
2019-03-12T05:31:57.938Z,32.40
2019-03-12T05:34:27.440Z,28.90
2019-03-12T05:36:57.153Z,19.30
2019-03-12T05:39:26.616Z,20.50
2019-03-12T05:41:55.993Z,28.53
2019-03-12T05:44:25.990Z,28.77
2019-03-12T05:46:55.379Z,21.43
2019-03-12T05:49:24.982Z,30.27
2019-03-12T05:51:54.461Z,34.80
2019-03-12T05:54:23.852Z,25.40
2019-03-12T05:56:53.332Z,29.60
2019-03-12T05:59:22.764Z,29.73
2019-03-12T06:01:52.522Z,21.93
2019-03-12T06:04:21.956Z,24.17
2019-03-12T06:06:51.422Z,32.73
2019-03-12T06:09:29.688Z,23.60
2019-03-12T06:11:51.944Z,26.20
2019-03-12T06:14:21.352Z,29.10
2019-03-12T06:16:50.971Z,18.20
2019-03-12T06:19:20.389Z,25.10
2019-03-12T06:21:49.860Z,25.20
2019-03-12T06:24:19.260Z,23.30
2019-03-12T06:26:48.758Z,18.33
2019-03-12T06:29:18.149Z,20.03
2019-03-12T06:32:04.023Z,16.97
2019-03-12T06:34:58.549Z,18.73
2019-03-12T06:37:59.329Z,21.23
2019-03-12T06:40:43.319Z,20.40
2019-03-12T06:43:30.256Z,17.67
2019-03-12T06:46:27.974Z,25.17
2019-03-12T06:49:07.553Z,19.70
2019-03-12T06:52:05.435Z,19.83
2019-03-12T06:54:43.922Z,20.63
2019-03-12T06:57:41.393Z,15.50
2019-03-12T07:00:37.212Z,17.20
2019-03-12T07:03:32.894Z,10.27
2019-03-12T07:06:15.851Z,20.43
2019-03-12T07:08:57.180Z,15.03
2019-03-12T07:11:44.388Z,14.43
2019-03-12T07:14:31.583Z,15.73
2019-03-12T07:17:18.216Z,17.20
2019-03-12T07:20:05.360Z,11.03
2019-03-12T07:22:44.111Z,18.93
2019-03-12T07:25:30.484Z,10.90
2019-03-12T07:28:18.084Z,10.43
2019-03-12T07:31:15.823Z,9.07
2019-03-12T07:33:52.534Z,9.17
2019-03-12T07:36:47.686Z,11.80
2019-03-12T07:39:44.753Z,8.70
2019-03-12T07:42:24.912Z,5.40
2019-03-12T07:45:16.363Z,6.73
2019-03-12T07:48:10.978Z,6.50
2019-03-12T07:50:58.048Z,11.83
2019-03-12T07:53:59.794Z,8.90
2019-03-12T07:56:51.584Z,11.73
2019-03-12T07:59:46.172Z,10.90
2019-03-12T08:02:43.559Z,10.37
2019-03-12T08:05:47.836Z,7.13
2019-03-12T08:08:24.054Z,18.90
2019-03-12T08:10:58.470Z,10.30
2019-03-12T08:13:33.479Z,7.60
2019-03-12T08:16:14.724Z,7.73
2019-03-12T08:18:50.846Z,7.37
2019-03-12T08:21:58.198Z,9.50
2019-03-12T08:24:33.071Z,5.80
2019-03-12T08:27:13.306Z,12.33
2019-03-12T08:30:01.655Z,3.13
2019-03-12T08:32:50.107Z,13.40
2019-03-12T08:35:34.046Z,2.50
2019-03-12T08:38:17.550Z,9.00
2019-03-12T08:40:57.052Z,9.07
2019-03-12T08:43:42.794Z,4.73
2019-03-12T08:46:39.056Z,4.07
2019-03-12T08:49:30.270Z,5.33
2019-03-12T08:52:17.664Z,4.33
2019-03-12T08:55:09.016Z,5.13
2019-03-12T08:57:53.273Z,7.93
2019-03-12T09:00:40.482Z,9.93
2019-03-12T09:03:26.270Z,7.50
2019-03-12T09:06:07.550Z,12.30
2019-03-12T09:08:52.773Z,5.13
2019-03-12T09:11:56.736Z,5.30
2019-03-12T09:14:50.965Z,8.30
2019-03-12T09:17:30.747Z,6.20
2019-03-12T09:20:22.100Z,4.23
2019-03-12T09:23:11.534Z,5.47
2019-03-12T09:26:18.290Z,7.60
2019-03-12T09:29:24.845Z,6.50
2019-03-12T09:32:04.751Z,7.70
2019-03-12T09:34:45.106Z,7.43
2019-03-12T09:37:20.399Z,7.67
2019-03-12T09:40:08.742Z,3.30
2019-03-12T09:42:56.114Z,6.00
2019-03-12T09:45:43.093Z,4.83
2019-03-12T09:48:31.730Z,3.93
2019-03-12T09:51:22.818Z,3.23
2019-03-12T09:54:12.340Z,6.20
2019-03-12T09:57:10.111Z,2.07
2019-03-12T09:59:57.242Z,4.27
2019-03-12T10:02:51.687Z,3.13
2019-03-12T10:05:40.045Z,4.43
2019-03-12T10:08:27.566Z,9.90
2019-03-12T10:11:15.919Z,2.53
2019-03-12T10:14:03.450Z,2.80
2019-03-12T10:16:49.175Z,2.77
2019-03-12T10:19:49.362Z,2.43
2019-03-12T10:22:37.905Z,2.20
2019-03-12T10:25:35.665Z,5.17
2019-03-12T10:28:22.814Z,3.40
2019-03-12T10:31:17.594Z,4.90
2019-03-12T10:34:14.930Z,1.73
2019-03-12T10:37:16.670Z,2.23
2019-03-12T10:40:25.293Z,4.20
2019-03-12T10:43:22.132Z,4.10
2019-03-12T10:46:09.344Z,5.33
2019-03-12T10:48:39.116Z,3.93
2019-03-12T10:51:08.492Z,4.10
2019-03-12T10:53:37.999Z,2.57
2019-03-12T10:56:07.401Z,3.37
2019-03-12T10:58:37.088Z,4.33
2019-03-12T11:01:06.623Z,2.63
2019-03-12T11:03:36.012Z,1.67
2019-03-12T11:06:05.849Z,1.67
2019-03-12T11:08:35.276Z,2.60
2019-03-12T11:11:05.211Z,1.63
2019-03-12T11:13:34.676Z,1.90
2019-03-12T11:16:04.166Z,1.53
2019-03-12T11:18:35.455Z,1.70
2019-03-12T11:21:05.355Z,2.20
2019-03-12T11:23:34.786Z,1.50
2019-03-12T11:26:04.771Z,3.43
2019-03-12T11:28:34.179Z,1.60
2019-03-12T11:31:03.839Z,2.03
2019-03-12T11:33:33.240Z,2.10
2019-03-12T11:36:02.894Z,2.40
2019-03-12T11:38:32.423Z,0.90
2019-03-12T11:41:04.773Z,1.23
2019-03-12T11:43:34.219Z,5.10
2019-03-12T11:46:03.782Z,2.27
2019-03-12T11:48:33.153Z,2.40
2019-03-12T11:51:03.155Z,2.83
2019-03-12T11:53:32.692Z,3.47
2019-03-12T11:56:02.140Z,1.73
2019-03-12T11:58:31.528Z,3.23
2019-03-12T12:01:03.692Z,2.77
2019-03-12T12:03:33.437Z,1.90
2019-03-12T12:06:06.062Z,6.00
2019-03-12T12:08:35.465Z,1.77
2019-03-12T12:11:04.952Z,1.83
2019-03-12T12:13:34.333Z,5.50
2019-03-12T12:16:03.814Z,5.63
2019-03-12T12:18:33.333Z,2.00
2019-03-12T12:21:03.090Z,2.53
2019-03-12T12:23:32.679Z,2.23
2019-03-12T12:26:02.073Z,2.20
2019-03-12T12:28:31.596Z,2.30
2019-03-12T12:31:00.983Z,10.90
2019-03-12T12:33:30.851Z,9.10
2019-03-12T12:36:00.246Z,3.23
2019-03-12T12:38:30.228Z,5.30
2019-03-12T12:40:59.671Z,2.37
2019-03-12T12:43:31.867Z,2.97
2019-03-12T12:46:01.277Z,2.90
2019-03-12T12:48:30.806Z,5.80
2019-03-12T12:51:03.515Z,2.80
2019-03-12T12:53:31.616Z,3.47
2019-03-12T12:56:01.007Z,2.70
2019-03-12T12:58:30.484Z,3.90
2019-03-12T13:00:59.850Z,4.90
2019-03-12T13:03:29.323Z,4.57
2019-03-12T13:05:58.739Z,2.40
2019-03-12T13:08:28.283Z,3.43
2019-03-12T13:10:57.658Z,4.90
2019-03-12T13:13:27.397Z,3.27
2019-03-12T13:15:57.100Z,3.40
2019-03-12T13:18:26.676Z,8.47
2019-03-12T13:20:56.060Z,5.13
2019-03-12T13:23:25.536Z,10.17
2019-03-12T13:25:55.023Z,6.07
2019-03-12T13:28:24.556Z,6.87
2019-03-12T13:30:53.936Z,2.50
2019-03-12T13:33:23.441Z,4.97
2019-03-12T13:35:52.824Z,2.00
2019-03-12T13:38:22.762Z,2.43
2019-03-12T13:40:52.523Z,6.33
2019-03-12T13:43:22.426Z,6.40
2019-03-12T13:45:51.886Z,3.73
2019-03-12T13:48:21.400Z,4.87
2019-03-12T13:50:50.839Z,8.13
2019-03-12T13:53:20.312Z,3.50
2019-03-12T13:55:49.827Z,1.70
2019-03-12T13:58:19.733Z,6.53
2019-03-12T14:00:49.123Z,6.50
2019-03-12T14:03:18.934Z,9.53
2019-03-12T14:05:48.338Z,2.03
2019-03-12T14:08:18.388Z,3.30
2019-03-12T14:10:47.789Z,3.87
2019-03-12T14:13:17.399Z,4.60
2019-03-12T14:15:48.751Z,3.87
2019-03-12T14:18:18.162Z,4.93
2019-03-12T14:20:49.606Z,6.00
2019-03-12T14:23:33.999Z,7.93
2019-03-12T14:26:03.526Z,10.00
2019-03-12T14:28:33.573Z,6.83
2019-03-12T14:31:02.967Z,7.67
2019-03-12T14:33:32.670Z,5.23
2019-03-12T14:36:02.088Z,3.13
2019-03-12T14:38:31.565Z,4.47
2019-03-12T14:41:01.550Z,6.60
2019-03-12T14:43:31.216Z,3.20
2019-03-12T14:46:00.623Z,5.47
2019-03-12T14:48:47.502Z,9.23
2019-03-12T14:51:40.947Z,8.37
2019-03-12T14:54:10.444Z,7.57
2019-03-12T14:56:39.852Z,4.10
2019-03-12T14:59:09.632Z,2.40
2019-03-12T15:01:39.134Z,7.20
2019-03-12T15:04:08.903Z,5.13
2019-03-12T15:06:38.300Z,2.77
2019-03-12T15:09:13.927Z,4.83
2019-03-12T15:11:43.298Z,8.23
2019-03-12T15:14:12.941Z,2.73
2019-03-12T15:16:43.330Z,5.93
2019-03-12T15:19:13.100Z,6.73
2019-03-12T15:21:42.562Z,6.53
2019-03-12T15:24:11.957Z,2.90
2019-03-12T15:26:41.632Z,4.53
2019-03-12T15:29:13.889Z,2.77
2019-03-12T15:31:43.519Z,10.30
2019-03-12T15:34:13.222Z,7.57
2019-03-12T15:36:45.360Z,4.03
2019-03-12T15:39:15.300Z,1.93
2019-03-12T15:41:44.790Z,2.80
2019-03-12T15:44:14.277Z,13.03
2019-03-12T15:46:43.761Z,5.17
2019-03-12T15:49:13.261Z,8.80
2019-03-12T15:51:43.237Z,3.10
2019-03-12T15:54:12.661Z,3.63
2019-03-12T15:56:42.241Z,4.63
2019-03-12T15:59:11.954Z,5.30
2019-03-12T16:01:41.367Z,4.20
2019-03-12T16:04:10.919Z,3.83
2019-03-12T16:06:40.310Z,4.87
2019-03-12T16:09:10.503Z,2.70
2019-03-12T16:11:39.916Z,2.80
2019-03-12T16:14:09.419Z,6.70
2019-03-12T16:16:40.355Z,3.87
2019-03-12T16:19:09.992Z,5.87
2019-03-12T16:21:41.037Z,5.07
2019-03-12T16:24:10.503Z,6.40
2019-03-12T16:26:40.493Z,3.23
2019-03-12T16:29:09.965Z,2.87
2019-03-12T16:31:39.493Z,5.10
2019-03-12T16:34:08.914Z,8.10
2019-03-12T16:36:38.399Z,9.70
2019-03-12T16:39:08.203Z,6.03
2019-03-12T16:41:38.554Z,9.13
2019-03-12T16:44:07.993Z,12.03
2019-03-12T16:46:37.513Z,5.60
2019-03-12T16:49:06.959Z,4.90
2019-03-12T16:51:36.523Z,3.60
2019-03-12T16:54:06.091Z,6.47
2019-03-12T16:56:45.080Z,4.10
2019-03-12T16:59:08.437Z,7.77
2019-03-12T17:01:38.089Z,4.90
2019-03-12T17:04:07.471Z,7.43
2019-03-12T17:06:37.199Z,8.70
2019-03-12T17:09:07.622Z,7.93
2019-03-12T17:11:37.536Z,12.83
2019-03-12T17:14:06.934Z,3.50
2019-03-12T17:16:37.255Z,11.63
2019-03-12T17:19:09.832Z,5.60
2019-03-12T17:21:39.434Z,5.67
2019-03-12T17:24:08.837Z,5.40
2019-03-12T17:26:38.863Z,7.07
2019-03-12T17:29:08.252Z,5.03
2019-03-12T17:31:37.764Z,6.10
2019-03-12T17:34:07.195Z,3.70
2019-03-12T17:36:36.701Z,11.03
2019-03-12T17:39:07.574Z,5.87
2019-03-12T17:41:37.942Z,6.63
2019-03-12T17:44:07.345Z,8.40
2019-03-12T17:46:36.957Z,6.93
2019-03-12T17:49:06.454Z,9.13
2019-03-12T17:51:35.949Z,6.93
2019-03-12T17:54:05.676Z,6.20
2019-03-12T17:56:35.375Z,7.50
2019-03-12T17:59:04.837Z,7.67
2019-03-12T18:01:34.415Z,9.97
2019-03-12T18:04:03.816Z,6.33
2019-03-12T18:06:35.054Z,7.17
2019-03-12T18:09:08.530Z,4.43
2019-03-12T18:11:38.149Z,13.90
2019-03-12T18:14:07.566Z,14.80
2019-03-12T18:16:41.217Z,13.43
2019-03-12T18:19:08.089Z,4.90
2019-03-12T18:21:37.623Z,7.47
2019-03-12T18:24:07.240Z,7.90
2019-03-12T18:26:37.227Z,7.33
2019-03-12T18:29:07.119Z,8.83
2019-03-12T18:31:36.620Z,4.77
2019-03-12T18:34:06.041Z,7.57
2019-03-12T18:36:35.622Z,6.33
2019-03-12T18:39:07.731Z,5.43
2019-03-12T18:41:37.681Z,12.67
2019-03-12T18:44:07.083Z,5.40
2019-03-12T18:46:36.507Z,7.13
2019-03-12T18:49:06.251Z,4.67
2019-03-12T18:51:35.671Z,8.00
2019-03-12T18:54:05.150Z,6.80
2019-03-12T18:56:34.559Z,7.67
2019-03-12T18:59:04.478Z,8.80
2019-03-12T19:01:33.981Z,11.33
2019-03-12T19:04:03.418Z,8.83
2019-03-12T19:06:33.601Z,11.63
2019-03-12T19:09:03.637Z,6.73
2019-03-12T19:11:37.566Z,6.33
2019-03-12T19:14:04.436Z,8.03
2019-03-12T19:16:34.072Z,3.13
2019-03-12T19:19:03.524Z,7.97
2019-03-12T19:21:32.973Z,5.47
2019-03-12T19:24:02.385Z,13.53
2019-03-12T19:26:31.898Z,8.07
2019-03-12T19:29:01.309Z,5.40
2019-03-12T19:31:41.400Z,5.53
2019-03-12T19:34:17.130Z,6.07
2019-03-12T19:36:46.591Z,13.47
2019-03-12T19:39:17.919Z,13.23
2019-03-12T19:41:47.787Z,9.93
2019-03-12T19:44:17.218Z,7.37
2019-03-12T19:46:46.996Z,8.67
2019-03-12T19:49:16.407Z,7.50
2019-03-12T19:51:45.935Z,8.87
2019-03-12T19:54:15.349Z,6.80
2019-03-12T19:56:46.640Z,14.47
2019-03-12T19:59:16.031Z,4.50
2019-03-12T20:01:46.296Z,8.50
2019-03-12T20:04:15.822Z,5.70
2019-03-12T20:06:45.370Z,6.37
2019-03-12T20:09:21.223Z,7.53
2019-03-12T20:12:19.710Z,5.37
2019-03-12T20:15:28.826Z,8.13
2019-03-12T20:18:35.076Z,4.60
2019-03-12T20:21:51.317Z,5.63
2019-03-12T20:25:03.383Z,4.30
2019-03-12T20:28:20.245Z,3.97
2019-03-12T20:31:25.323Z,4.63
2019-03-12T20:34:34.111Z,4.50
2019-03-12T20:37:43.389Z,4.17
2019-03-12T20:41:18.044Z,5.40
2019-03-12T20:44:21.563Z,4.23
2019-03-12T20:47:32.257Z,4.37
2019-03-12T20:50:42.669Z,5.13
2019-03-12T20:53:58.519Z,13.23
2019-03-12T20:57:12.174Z,5.80
2019-03-12T21:00:23.165Z,5.10
2019-03-12T21:03:45.846Z,4.93
2019-03-12T21:06:51.876Z,5.57
2019-03-12T21:10:08.636Z,4.80
2019-03-12T21:13:35.158Z,5.93
2019-03-12T21:16:54.806Z,8.83
2019-03-12T21:20:00.529Z,13.50
2019-03-12T21:22:58.913Z,4.57
2019-03-12T21:26:06.520Z,7.30
2019-03-12T21:29:27.083Z,5.00
2019-03-12T21:31:56.493Z,11.87
2019-03-12T21:34:26.216Z,7.10
2019-03-12T21:36:55.727Z,11.00
2019-03-12T21:39:27.421Z,7.40
2019-03-12T21:41:57.399Z,3.13
2019-03-12T21:44:26.971Z,6.13
2019-03-12T21:46:57.017Z,5.53
2019-03-12T21:49:26.665Z,18.73
2019-03-12T21:51:57.539Z,4.30
2019-03-12T21:54:28.175Z,10.57
2019-03-12T21:56:58.818Z,8.80
2019-03-12T21:59:28.397Z,5.80
2019-03-12T22:01:57.932Z,6.10
2019-03-12T22:04:28.080Z,4.60
2019-03-12T22:06:57.629Z,10.77
2019-03-12T22:09:27.607Z,5.60
2019-03-12T22:11:57.526Z,4.40
2019-03-12T22:14:27.008Z,3.73
2019-03-12T22:16:58.742Z,3.63
2019-03-12T22:19:28.560Z,10.37
2019-03-12T22:22:28.874Z,7.57
2019-03-12T22:24:58.365Z,5.73
2019-03-12T22:27:27.785Z,6.73
2019-03-12T22:29:57.334Z,4.00
2019-03-12T22:32:26.758Z,4.73
2019-03-12T22:34:56.737Z,6.73
2019-03-12T22:37:26.145Z,6.10
2019-03-12T22:39:55.637Z,6.83
2019-03-12T22:42:25.684Z,4.07
2019-03-12T22:44:57.021Z,4.63
2019-03-12T22:47:26.839Z,4.03
2019-03-12T22:49:56.269Z,3.77
2019-03-12T22:52:25.691Z,14.43
2019-03-12T22:54:56.897Z,5.17
2019-03-12T22:57:26.455Z,10.70
2019-03-12T22:59:56.190Z,3.80
2019-03-12T23:02:26.021Z,6.57
2019-03-12T23:04:55.506Z,16.53
2019-03-12T23:07:24.911Z,12.43
2019-03-12T23:09:56.348Z,6.20
2019-03-12T23:12:25.750Z,6.13
2019-03-12T23:14:55.356Z,8.60
2019-03-12T23:17:24.761Z,3.50
2019-03-12T23:19:54.372Z,7.13
2019-03-12T23:22:23.771Z,2.93
2019-03-12T23:24:53.377Z,3.20
2019-03-12T23:27:22.795Z,3.73
2019-03-12T23:29:52.591Z,8.77
2019-03-12T23:32:22.796Z,4.47
2019-03-12T23:34:52.420Z,16.37
2019-03-12T23:37:21.830Z,8.00
2019-03-12T23:39:51.647Z,4.87
2019-03-12T23:42:21.064Z,4.03
2019-03-12T23:44:50.529Z,4.97
2019-03-12T23:47:20.508Z,3.60
2019-03-12T23:49:50.004Z,5.80
2019-03-12T23:52:20.003Z,4.60
2019-03-12T23:54:49.938Z,8.90
2019-03-12T23:57:19.293Z,5.73
2019-03-12T23:59:48.836Z,4.40
